Time;durP1;ratioP1;P1;durP2;ratioP2;P2;SDS_P1;SDS_P2;PMS_P1;PMS_P2;Temp;Humidity;BMP_temperature;BMP_pressure;BME280_temperature;BME280_humidity;BME280_pressure;Samples;Min_cycle;Max_cycle;Signal;HPM_P1;HPM_P2
2022/02/26 00:01:13;;;;;;;0.60;0.60;;;;;;;;;;6098120;23;20033;-91
2022/02/26 00:03:39;;;;;;;1.10;0.90;;;;;;;;;;6074898;23;20017;-91
2022/02/26 00:06:05;;;;;;;1.60;0.75;;;;;;;;;;6120266;23;20093;-90
2022/02/26 00:08:30;;;;;;;1.33;0.60;;;;;;;;;;6113466;23;20018;-91
2022/02/26 00:10:56;;;;;;;0.80;0.70;;;;;;;;;;6098516;23;20007;-90
2022/02/26 00:13:21;;;;;;;1.27;0.85;;;;;;;;;;6111914;23;20006;-94
2022/02/26 00:15:47;;;;;;;1.60;0.65;;;;;;;;;;6098077;23;20077;-92
2022/02/26 07:30:28;;;;;;;3.58;2.80;;;;;;;;;;6122111;23;20057;-94
2022/02/26 07:32:59;;;;;;;3.10;1.77;;;;;;;;;;6115018;23;20018;-94
2022/02/26 07:35:24;;;;;;;3.35;1.85;;;;;;;;;;6112623;23;20002;-95
2022/02/26 07:37:50;;;;;;;2.17;1.30;;;;;;;;;;6117448;23;20010;-94
2022/02/26 07:43:13;;;;;;;1.77;0.90;;;;;;;;;;6191975;23;20028;-96
2022/02/26 07:49:39;;;;;;;0.83;0.80;;;;;;;;;;6190791;23;20005;-94
2022/02/26 07:56:04;;;;;;;0.70;0.70;;;;;;;;;;6196329;23;20008;-95
2022/02/26 07:59:32;;;;;;;;;;;;;;;;;;;;;
2022/02/26 08:02:31;;;;;;;1.30;0.80;;;;;;;;;;6071838;23;19999;-94
2022/02/26 08:05:20;;;;;;;0.90;0.82;;;;;;;;;;6121664;23;20015;-95
2022/02/26 08:08:34;;;;;;;1.13;1.02;;;;;;;;;;6096729;23;20013;-95
2022/02/26 08:11:13;;;;;;;1.13;0.90;;;;;;;;;;6090557;23;20035;-96
2022/02/26 08:13:53;;;;;;;0.85;0.73;;;;;;;;;;6183148;23;20079;-95
2022/02/26 08:16:18;;;;;;;0.80;0.80;;;;;;;;;;6172496;23;20059;-96
2022/02/26 08:18:44;;;;;;;0.68;0.68;;;;;;;;;;6162164;23;20005;-96
2022/02/26 08:21:14;;;;;;;0.93;0.90;;;;;;;;;;6139627;23;20317;-94
2022/02/26 08:24:20;;;;;;;0.80;0.80;;;;;;;;;;6134921;23;20025;-96
2022/02/26 08:34:37;;;;;;;0.80;0.70;;;;;;;;;;6198288;23;20040;-96
2022/02/26 08:37:46;;;;;;;;;;;;;;;;;;;;;
2022/02/26 08:48:25;;;;;;;1.90;0.60;;;;;;;;;;6197229;23;20040;-96
2022/02/26 08:50:51;;;;;;;3.85;0.73;;;;;;;;;;6174432;23;20031;-95
2022/02/26 08:53:17;;;;;;;0.90;0.60;;;;;;;;;;6171459;23;20013;-95
2022/02/26 08:55:45;;;;;;;1.20;0.63;;;;;;;;;;6165178;23;20005;-96
2022/02/26 09:03:29;;;;;;;1.08;0.82;;;;;;;;;;6200675;23;20079;-95
2022/02/26 09:08:35;;;;;;;0.70;0.70;;;;;;;;;;6192924;23;20028;-96
2022/02/26 09:11:10;;;;;;;1.17;0.90;;;;;;;;;;6164345;23;20490;-96
2022/02/26 09:13:42;;;;;;;2.67;0.80;;;;;;;;;;6166031;23;20321;-95
2022/02/26 09:16:14;;;;;;;1.08;0.77;;;;;;;;;;6164854;23;20052;-96
2022/02/26 09:18:51;;;;;;;0.70;0.70;;;;;;;;;;6166724;23;20417;-96
2022/02/26 09:27:13;;;;;;;;;;;;;;;;;;;;;
2022/02/26 09:29:41;;;;;;;0.98;0.65;;;;;;;;;;6192954;23;20041;-96
2022/02/26 09:32:18;;;;;;;0.68;0.68;;;;;;;;;;6163081;23;20024;-96
2022/02/26 09:34:44;;;;;;;0.70;0.65;;;;;;;;;;6163510;23;20009;-95
2022/02/26 09:37:12;;;;;;;1.20;0.70;;;;;;;;;;6163852;23;20020;-96
2022/02/26 09:39:41;;;;;;;1.17;0.88;;;;;;;;;;6188267;23;20008;-96
2022/02/26 09:42:08;;;;;;;2.65;0.77;;;;;;;;;;6163318;23;20005;-96
2022/02/26 09:45:27;;;;;;;;;;;;;;;;;;;;;
2022/02/26 09:47:58;;;;;;;2.85;0.60;;;;;;;;;;6184048;23;20028;-96
2022/02/26 09:50:23;;;;;;;0.52;0.52;;;;;;;;;;6166299;23;20320;-96
2022/02/26 09:52:53;;;;;;;1.50;0.60;;;;;;;;;;6165739;23;20009;-96
2022/02/26 09:55:20;;;;;;;1.30;0.60;;;;;;;;;;6164976;23;20009;-96
2022/02/26 10:08:14;;;;;;;3.58;1.95;;;;;;;;;;5997820;23;20076;-96
2022/02/26 10:10:42;;;;;;;1.98;1.60;;;;;;;;;;6018599;23;20015;-96
2022/02/26 10:13:08;;;;;;;1.58;0.65;;;;;;;;;;6093291;23;20007;-94
2022/02/26 10:15:45;;;;;;;0.70;0.70;;;;;;;;;;6070508;23;20014;-94
2022/02/26 10:27:25;;;;;;;1.08;0.98;;;;;;;;;;6171533;23;20380;-93
2022/02/26 10:29:53;;;;;;;2.67;0.90;;;;;;;;;;6158756;23;20446;-95
2022/02/26 10:32:21;;;;;;;1.58;0.90;;;;;;;;;;6134487;23;20014;-96
2022/02/26 10:34:47;;;;;;;1.60;1.10;;;;;;;;;;6135065;23;20013;-94
2022/02/26 10:37:15;;;;;;;1.40;1.30;;;;;;;;;;6135502;23;20093;-96
2022/02/26 10:39:45;;;;;;;0.70;0.70;;;;;;;;;;6133405;23;20013;-93
2022/02/26 10:42:18;;;;;;;1.45;0.90;;;;;;;;;;6163863;23;20005;-94
2022/02/26 10:44:44;;;;;;;271.30;22.27;;;;;;;;;;6163159;23;20140;-95
2022/02/26 10:47:15;;;;;;;2.28;1.00;;;;;;;;;;6138284;23;20010;-96
2022/02/26 10:49:49;;;;;;;0.63;0.60;;;;;;;;;;6137044;23;20109;-96
2022/02/26 10:52:16;;;;;;;0.73;0.73;;;;;;;;;;6134875;23;20089;-96
2022/02/26 10:54:56;;;;;;;1.08;0.80;;;;;;;;;;6134784;23;20005;-95
2022/02/26 10:57:21;;;;;;;2.80;0.80;;;;;;;;;;6135242;23;20337;-96
2022/02/26 10:59:56;;;;;;;0.82;0.70;;;;;;;;;;6134781;23;20005;-96
2022/02/26 11:02:24;;;;;;;2.03;0.65;;;;;;;;;;6135973;23;20425;-96
2022/02/26 11:04:56;;;;;;;1.52;0.77;;;;;;;;;;6135217;23;20082;-95
2022/02/26 11:07:23;;;;;;;4.53;2.42;;;;;;;;;;6158901;23;20002;-95
2022/02/26 11:09:54;;;;;;;0.80;0.77;;;;;;;;;;6136323;23;20440;-96
2022/02/26 11:12:24;;;;;;;2.97;2.03;;;;;;;;;;6133429;23;20006;-96
2022/02/26 11:14:58;;;;;;;0.73;0.60;;;;;;;;;;6134290;23;20029;-94
2022/02/26 11:17:29;;;;;;;0.60;0.60;;;;;;;;;;6134009;23;20424;-95
2022/02/26 11:20:04;;;;;;;2.05;0.68;;;;;;;;;;6134356;23;20001;-95
2022/02/26 11:22:29;;;;;;;1.48;0.65;;;;;;;;;;6160718;23;20006;-95
2022/02/26 11:24:56;;;;;;;0.73;0.47;;;;;;;;;;6139420;23;20416;-95
2022/02/26 11:27:24;;;;;;;1.85;0.65;;;;;;;;;;6182062;23;20044;-96
2022/02/26 11:29:51;;;;;;;1.13;0.50;;;;;;;;;;6155647;23;20010;-96
2022/02/26 11:32:20;;;;;;;0.88;0.60;;;;;;;;;;6128631;23;20002;-96
2022/02/26 11:34:47;;;;;;;1.20;0.60;;;;;;;;;;6128993;23;20068;-95
2022/02/26 11:37:15;;;;;;;0.43;0.43;;;;;;;;;;6128918;23;20068;-95
2022/02/26 11:39:49;;;;;;;0.50;0.50;;;;;;;;;;6121404;23;20033;-96
2022/02/26 11:42:23;;;;;;;1.75;0.70;;;;;;;;;;6128666;23;20333;-96
2022/02/26 11:45:06;;;;;;;0.63;0.63;;;;;;;;;;6122434;23;20326;-96
2022/02/26 11:47:38;;;;;;;0.60;0.60;;;;;;;;;;6128703;23;20010;-96
2022/02/26 11:50:04;;;;;;;1.10;0.43;;;;;;;;;;6153081;23;20065;-95
2022/02/26 11:52:53;;;;;;;0.75;0.60;;;;;;;;;;6118853;23;20014;-94
2022/02/26 11:55:40;;;;;;;1.80;0.80;;;;;;;;;;6128379;23;20050;-96
2022/02/26 11:58:14;;;;;;;0.85;0.60;;;;;;;;;;6128201;23;20010;-93
2022/02/26 12:00:51;;;;;;;0.85;0.85;;;;;;;;;;6122103;23;20012;-95
2022/02/26 12:03:45;;;;;;;0.98;0.68;;;;;;;;;;6130999;23;20033;-96
2022/02/26 12:06:11;;;;;;;0.57;0.55;;;;;;;;;;6129875;23;20069;-94
2022/02/26 12:08:44;;;;;;;0.60;0.50;;;;;;;;;;6118941;23;20010;-93
2022/02/26 12:11:32;;;;;;;1.80;0.77;;;;;;;;;;6130411;23;20010;-94
2022/02/26 12:14:03;;;;;;;1.67;0.90;;;;;;;;;;6130657;23;20013;-96
2022/02/26 12:16:38;;;;;;;0.50;0.50;;;;;;;;;;6124355;23;20010;-96
2022/02/26 12:26:26;;;;;;;;;;;;;;;;;;;;;
2022/02/26 12:52:23;;;;;;;0.75;0.70;;;;;;;;;;6114586;23;20029;-96
2022/02/26 13:02:05;;;;;;;1.38;1.00;;;;;;;;;;6162286;23;20024;-96
2022/02/26 13:08:45;;;;;;;;;;;;;;;;;;;;;
2022/02/26 13:12:07;;;;;;;2.60;1.92;;;;;;;;;;6154634;22;20017;-96
2022/02/26 13:14:41;;;;;;;0.52;0.50;;;;;;;;;;6148375;23;20013;-96
2022/02/26 13:17:22;;;;;;;1.00;0.70;;;;;;;;;;6171955;23;20061;-96
2022/02/26 13:20:22;;;;;;;0.85;0.55;;;;;;;;;;6137826;23;20005;-96
2022/02/26 13:22:59;;;;;;;0.93;0.60;;;;;;;;;;6112087;23;20440;-96
2022/02/26 13:25:27;;;;;;;0.77;0.50;;;;;;;;;;6113499;23;20072;-96
2022/02/26 13:27:53;;;;;;;0.73;0.50;;;;;;;;;;6138005;23;20002;-96
2022/02/26 13:30:38;;;;;;;0.50;0.50;;;;;;;;;;6136598;23;20060;-96
2022/02/26 13:33:04;;;;;;;1.30;0.40;;;;;;;;;;6134695;23;20010;-96
2022/02/26 17:48:39;;;;;;;1.80;1.70;;;;;;;;;;6178064;23;20071;-96
2022/02/26 17:51:13;;;;;;;0.90;0.90;;;;;;;;;;6138920;23;20017;-96
2022/02/26 17:54:06;;;;;;;0.90;0.90;;;;;;;;;;6120549;23;20069;-96
2022/02/26 17:56:32;;;;;;;1.17;0.80;;;;;;;;;;6113763;23;20037;-96
2022/02/26 17:58:59;;;;;;;1.08;0.90;;;;;;;;;;6111749;23;20026;-95
2022/02/26 18:01:26;;;;;;;0.80;0.80;;;;;;;;;;6143033;23;20026;-95
2022/02/26 18:07:24;;;;;;;0.98;0.80;;;;;;;;;;6170725;23;20291;-96
2022/02/26 18:21:44;;;;;;;1.05;0.73;;;;;;;;;;6169158;23;20006;-94
2022/02/26 18:34:52;;;;;;;1.42;0.77;;;;;;;;;;6150977;23;20033;-95
2022/02/26 19:13:40;;;;;;;2.17;1.42;;;;;;;;;;6172116;23;20043;-96
2022/02/26 19:16:53;;;;;;;1.15;0.80;;;;;;;;;;6176844;23;20040;-94
2022/02/26 20:03:19;;;;;;;0.95;0.70;;;;;;;;;;6133668;23;21106;-96
2022/02/26 20:05:47;;;;;;;0.80;0.80;;;;;;;;;;6166104;23;20062;-93
2022/02/26 20:08:13;;;;;;;1.70;0.70;;;;;;;;;;6144658;23;20017;-92
2022/02/26 20:10:39;;;;;;;3.50;0.85;;;;;;;;;;6140782;23;20009;-93
2022/02/26 20:13:05;;;;;;;0.90;0.63;;;;;;;;;;6137371;23;20266;-93
2022/02/26 20:15:33;;;;;;;0.95;0.90;;;;;;;;;;6160280;23;20041;-93
2022/02/26 20:18:00;;;;;;;1.02;0.95;;;;;;;;;;6133799;23;20014;-93
2022/02/26 20:20:26;;;;;;;1.05;0.90;;;;;;;;;;6135893;23;20013;-94
2022/02/26 20:22:51;;;;;;;0.70;0.70;;;;;;;;;;6136399;23;20437;-92
2022/02/26 20:25:18;;;;;;;0.88;0.88;;;;;;;;;;6133566;23;20006;-92
2022/02/26 20:27:44;;;;;;;1.13;0.80;;;;;;;;;;6134918;23;20449;-92
2022/02/26 20:30:14;;;;;;;0.68;0.68;;;;;;;;;;6135936;23;20010;-93
2022/02/26 20:33:00;;;;;;;0.93;0.82;;;;;;;;;;6135698;23;20080;-95
2022/02/26 20:35:27;;;;;;;1.42;1.05;;;;;;;;;;6133762;23;20440;-95
2022/02/26 20:37:53;;;;;;;0.75;0.70;;;;;;;;;;6133986;23;20006;-94
2022/02/26 20:40:19;;;;;;;0.82;0.82;;;;;;;;;;6133054;23;20426;-94
2022/02/26 20:42:47;;;;;;;0.88;0.88;;;;;;;;;;6134426;23;20026;-95
2022/02/26 20:45:13;;;;;;;1.20;1.05;;;;;;;;;;6132251;23;20021;-95
2022/02/26 20:47:41;;;;;;;1.85;1.00;;;;;;;;;;6134837;23;20010;-95
2022/02/26 20:50:12;;;;;;;0.63;0.63;;;;;;;;;;6136637;23;20093;-96
2022/02/26 20:52:45;;;;;;;1.05;0.60;;;;;;;;;;6135624;23;20076;-96
2022/02/26 20:55:11;;;;;;;0.90;0.90;;;;;;;;;;6136550;23;20045;-96
2022/02/26 20:57:38;;;;;;;0.82;0.73;;;;;;;;;;6136675;23;20019;-94
2022/02/26 21:00:07;;;;;;;1.00;0.90;;;;;;;;;;6133450;23;20006;-95
2022/02/26 21:02:35;;;;;;;1.95;0.90;;;;;;;;;;6134174;23;20425;-95
2022/02/26 21:05:01;;;;;;;1.10;0.77;;;;;;;;;;6133819;23;20020;-94
2022/02/26 21:07:27;;;;;;;0.80;0.80;;;;;;;;;;6133383;23;20037;-94
2022/02/26 21:09:53;;;;;;;1.15;1.05;;;;;;;;;;6134893;23;20006;-94
2022/02/26 21:12:19;;;;;;;1.48;0.88;;;;;;;;;;6131344;23;20002;-95
2022/02/26 21:14:46;;;;;;;1.02;0.65;;;;;;;;;;6134748;23;20053;-94
2022/02/26 21:17:12;;;;;;;1.20;0.82;;;;;;;;;;6136299;23;20021;-94
2022/02/26 21:19:39;;;;;;;1.63;0.80;;;;;;;;;;6136476;23;20002;-94
2022/02/26 21:22:06;;;;;;;1.25;0.70;;;;;;;;;;6136103;23;20045;-95
2022/02/26 21:24:32;;;;;;;0.80;0.80;;;;;;;;;;6135174;23;20090;-95
2022/02/26 21:26:59;;;;;;;1.52;0.63;;;;;;;;;;6132261;23;20342;-94
2022/02/26 21:29:24;;;;;;;0.88;0.70;;;;;;;;;;6131622;23;20034;-95
2022/02/26 21:31:50;;;;;;;1.38;0.70;;;;;;;;;;6130894;23;20010;-94
2022/02/26 21:34:15;;;;;;;0.65;0.65;;;;;;;;;;6131214;23;20013;-94
2022/02/26 21:36:41;;;;;;;0.80;0.73;;;;;;;;;;6131434;23;20112;-94
2022/02/26 21:39:10;;;;;;;1.00;0.90;;;;;;;;;;6131341;23;20029;-94
2022/02/26 21:41:36;;;;;;;0.65;0.65;;;;;;;;;;6132011;23;20014;-94
2022/02/26 22:19:13;;;;;;;0.75;0.70;;;;;;;;;;6163140;23;20048;-93
2022/02/26 22:21:39;;;;;;;1.35;1.00;;;;;;;;;;6221681;23;20017;-93
2022/02/26 22:24:04;;;;;;;1.60;0.70;;;;;;;;;;6196224;23;20332;-93
2022/02/26 22:26:30;;;;;;;0.90;0.90;;;;;;;;;;6195885;23;20009;-94
2022/02/26 22:28:56;;;;;;;1.33;0.95;;;;;;;;;;6194901;23;20017;-93
2022/02/26 22:31:22;;;;;;;0.80;0.63;;;;;;;;;;6197780;23;20005;-93
2022/02/26 22:33:52;;;;;;;1.17;0.80;;;;;;;;;;6196254;23;20012;-94
2022/02/26 22:36:19;;;;;;;1.00;0.80;;;;;;;;;;6195976;23;20425;-93
2022/02/26 22:38:46;;;;;;;1.30;0.82;;;;;;;;;;6194925;23;20009;-91
2022/02/26 22:41:17;;;;;;;0.93;0.80;;;;;;;;;;6194161;23;20035;-93
2022/02/26 22:43:42;;;;;;;0.80;0.80;;;;;;;;;;6193728;23;20009;-93
2022/02/26 22:46:09;;;;;;;0.80;0.80;;;;;;;;;;6191619;23;20036;-94
2022/02/26 22:48:35;;;;;;;0.90;0.70;;;;;;;;;;6194285;23;20032;-94
2022/02/26 22:51:00;;;;;;;0.90;0.60;;;;;;;;;;6194005;23;20005;-93
2022/02/26 22:53:26;;;;;;;1.33;0.73;;;;;;;;;;6193953;23;20008;-93
2022/02/26 22:55:52;;;;;;;1.15;1.05;;;;;;;;;;6192561;23;20005;-93
2022/02/26 22:58:18;;;;;;;1.35;0.90;;;;;;;;;;6194260;23;20087;-93
2022/02/26 23:01:03;;;;;;;1.00;0.60;;;;;;;;;;6194462;23;20071;-93
2022/02/26 23:03:29;;;;;;;0.90;0.70;;;;;;;;;;6193960;23;20005;-93
2022/02/26 23:06:42;;;;;;;;;;;;;;;;;;;;;
2022/02/26 23:09:09;;;;;;;0.80;0.77;;;;;;;;;;6189914;23;20443;-96
2022/02/26 23:11:35;;;;;;;0.95;0.90;;;;;;;;;;6197599;23;20001;-95
